Wahpeton, MN

9:56 AM CST on December 09, 2019 (GMT -0600)
Stern

Weather History for KBWP - October, 2019

Change the Weather History Date:

Monday, October 28, 2019

  Actual Average (KFFM) Record (KFFM)
Temperature  
Mean Temperature 29 °F -  
Max Temperature 35 °F 51 °F 74 °F (1983)
Min Temperature 23 °F 29 °F 12 °F (1967)
Degree Days  
Heating Degree Days 36    
Moisture  
Dew Point 18 °F    
Average Humidity 61    
Maximum Humidity 80    
Minimum Humidity 38    
Precipitation  
Precipitation 0.00 in - - ()
Sea Level Pressure  
Sea Level Pressure 30.06 in    
Wind  
Wind Speed 9 mph ()    
Max Wind Speed 15 mph    
Max Gust Speed 18 mph    
Visibility 10.0 miles    
Events      
Averages and records for this station are not official NWS values.
T = Trace of Precipitation, MM = Missing Value Source: Averaged Metar Reports

Daily Weather History Graph

Daily Weather History Graph

Search for Another Location

Airport or City:

Astronomy

Oct. 28, 2019 Rise Set
Actual Time 8:01 AM CDT 6:18 PM CDT
Civil Twilight 7:30 AM CDT 6:49 PM CDT
Nautical Twilight 6:55 AM CDT 7:24 PM CDT
Astronomical Twilight 6:20 AM CDT 7:59 PM CDT
Moon 8:23 AM CDT (10/28) 7:03 PM CDT (10/28)
Length of Visible Light 11h 18m
Length of Day
10h 16m
New Moon, 0% of the Moon is Illuminated
Oct 28
New Moon
Nov 4
First Quarter
Nov 12
Full
Nov 19
Last Quarter
Nov 26
New

Hourly Weather History & Observations

Time (CDT) Temp. Windchill Dew Point Humidity Pressure Visibility Wind Dir Wind Speed Gust Speed Precip Events Conditions
12:15 AM 30.2 °F 22.6 °F 17.6 °F 60% 30.11 in 10.0 mi West 8.1 mph - N/A   Unknown
12:35 AM 30.2 °F 19.8 °F 17.6 °F 60% 30.11 in 10.0 mi West 13.8 mph - N/A   Unknown
12:55 AM 30.2 °F 19.8 °F 17.6 °F 60% 30.11 in 10.0 mi West 13.8 mph - N/A   Unknown
1:15 AM 30.2 °F 20.2 °F 17.6 °F 60% 30.11 in 10.0 mi West 12.7 mph 18.4 mph N/A   Unknown
1:35 AM 30.2 °F 20.8 °F 19.4 °F 64% 30.11 in 10.0 mi West 11.5 mph - N/A   Unknown
1:55 AM 30.2 °F 20.2 °F 17.6 °F 60% 30.10 in 10.0 mi West 12.7 mph 17.3 mph N/A   Unknown
2:15 AM 30.2 °F 19.8 °F 17.6 °F 60% 30.10 in 10.0 mi West 13.8 mph - N/A   Unknown
2:35 AM 30.2 °F 20.2 °F 17.6 °F 60% 30.10 in 10.0 mi WNW 12.7 mph - N/A   Unknown
2:55 AM 30.2 °F 21.3 °F 19.4 °F 64% 30.10 in 10.0 mi WNW 10.4 mph - N/A   Unknown
3:15 AM 30.2 °F 21.3 °F 17.6 °F 60% 30.09 in 10.0 mi West 10.4 mph - N/A   Unknown
3:35 AM 30.2 °F 21.3 °F 19.4 °F 64% 30.08 in 10.0 mi West 10.4 mph - N/A   Unknown
3:55 AM 30.2 °F 21.9 °F 19.4 °F 64% 30.09 in 10.0 mi West 9.2 mph - N/A   Unknown
4:15 AM 30.2 °F 20.2 °F 19.4 °F 64% 30.08 in 10.0 mi West 12.7 mph - N/A   Unknown
4:35 AM 28.4 °F 18.0 °F 19.4 °F 69% 30.08 in 10.0 mi West 12.7 mph - N/A   Unknown
4:55 AM 28.4 °F 20.4 °F 19.4 °F 69% 30.06 in 10.0 mi West 8.1 mph - N/A   Unknown
5:15 AM 28.4 °F 19.1 °F 19.4 °F 69% 30.06 in 10.0 mi West 10.4 mph - N/A   Unknown
5:35 AM 28.4 °F 19.1 °F 19.4 °F 69% 30.06 in 10.0 mi West 10.4 mph - N/A   Unknown
5:55 AM 28.4 °F 20.4 °F 21.2 °F 74% 30.06 in 10.0 mi West 8.1 mph - N/A   Unknown
6:15 AM 28.4 °F 20.4 °F 21.2 °F 74% 30.06 in 10.0 mi West 8.1 mph - N/A   Unknown
6:35 AM 28.4 °F 19.1 °F 19.4 °F 69% 30.06 in 10.0 mi West 10.4 mph - N/A   Unknown
6:55 AM 28.4 °F 22.2 °F 19.4 °F 69% 30.05 in 10.0 mi West 5.8 mph - N/A   Unknown
7:15 AM 28.4 °F 19.7 °F 17.6 °F 64% 30.06 in 10.0 mi WSW 9.2 mph - N/A   Unknown
7:35 AM 26.6 °F 17.5 °F 17.6 °F 69% 30.06 in 10.0 mi WSW 9.2 mph - N/A   Unknown
7:55 AM 24.8 °F 14.6 °F 17.6 °F 74% 30.06 in 10.0 mi WSW 10.4 mph - N/A   Unknown
8:15 AM 23.0 °F 12.4 °F 17.6 °F 80% 30.06 in 10.0 mi WSW 10.4 mph - N/A   Unknown
8:35 AM 23.0 °F 13.9 °F 17.6 °F 80% 30.06 in 10.0 mi SW 8.1 mph - N/A   Unknown
8:55 AM 24.8 °F 14.0 °F 17.6 °F 74% 30.06 in 10.0 mi WSW 11.5 mph - N/A   Unknown
9:15 AM 24.8 °F 13.4 °F 17.6 °F 74% 30.08 in 10.0 mi WSW 12.7 mph - N/A   Unknown
9:35 AM 26.6 °F 15.2 °F 17.6 °F 69% 30.08 in 10.0 mi WSW 13.8 mph - N/A   Unknown
9:55 AM 26.6 °F 15.7 °F 17.6 °F 69% 30.08 in 10.0 mi WSW 12.7 mph - N/A   Unknown
10:15 AM 26.6 °F 15.7 °F 17.6 °F 69% 30.08 in 10.0 mi WSW 12.7 mph - N/A   Unknown
10:35 AM 28.4 °F 19.7 °F 17.6 °F 64% 30.07 in 10.0 mi WSW 9.2 mph - N/A   Unknown
10:55 AM 28.4 °F 19.7 °F 17.6 °F 64% 30.06 in 10.0 mi WSW 9.2 mph - N/A   Unknown
12:55 PM 32.0 °F 25.6 °F 14.0 °F 48% 30.05 in 10.0 mi SW 6.9 mph 16.1 mph N/A   Unknown
1:15 PM 32.0 °F 24.8 °F 14.0 °F 48% 30.04 in 10.0 mi WSW 8.1 mph 16.1 mph N/A   Unknown
1:35 PM 32.0 °F 23.6 °F 14.0 °F 48% 30.04 in 10.0 mi SW 10.4 mph - N/A   Unknown
1:55 PM 32.0 °F 23.0 °F 14.0 °F 48% 30.04 in 10.0 mi WSW 11.5 mph 16.1 mph N/A   Unknown
2:15 PM 33.8 °F 26.4 °F 14.0 °F 44% 30.03 in 10.0 mi West 9.2 mph - N/A   Unknown
2:35 PM 33.8 °F 25.8 °F 14.0 °F 44% 30.02 in 10.0 mi WSW 10.4 mph 16.1 mph N/A   Unknown
2:55 PM 33.8 °F 27.0 °F 12.2 °F 41% 30.01 in 10.0 mi WSW 8.1 mph - N/A   Unknown
3:15 PM 35.6 °F 29.9 °F 14.0 °F 41% 30.01 in 10.0 mi SW 6.9 mph - N/A   Unknown
3:35 PM 35.6 °F 29.2 °F 14.0 °F 41% 30.01 in 10.0 mi WSW 8.1 mph - N/A   Unknown
3:55 PM 35.6 °F 28.0 °F 14.0 °F 41% 30.01 in 10.0 mi WSW 10.4 mph 16.1 mph N/A   Unknown
4:15 PM 35.6 °F 29.2 °F 14.0 °F 41% 30.01 in 10.0 mi WSW 8.1 mph - N/A   Unknown
4:35 PM 35.6 °F 28.6 °F 12.2 °F 38% 30.01 in 10.0 mi WSW 9.2 mph - N/A   Unknown
4:55 PM 35.6 °F 28.6 °F 14.0 °F 41% 30.01 in 10.0 mi WSW 9.2 mph - N/A   Unknown
5:15 PM 33.8 °F 27.0 °F 15.8 °F 48% 30.01 in 10.0 mi West 8.1 mph - N/A   Unknown
5:35 PM 33.8 °F 27.7 °F 17.6 °F 52% 30.01 in 10.0 mi West 6.9 mph - N/A   Unknown
5:55 PM 33.8 °F 29.6 °F 17.6 °F 52% 30.01 in 10.0 mi WSW 4.6 mph - N/A   Unknown
6:15 PM 32.0 °F 28.7 °F 17.6 °F 55% 30.01 in 10.0 mi SW 3.5 mph - N/A   Unknown
6:35 PM 32.0 °F - 19.4 °F 60% 30.02 in 10.0 mi Calm Calm - N/A   Unknown
6:55 PM 30.2 °F 25.4 °F 21.2 °F 69% 30.02 in 10.0 mi South 4.6 mph - N/A   Unknown
7:15 PM 30.2 °F 24.3 °F 19.4 °F 64% 30.03 in 10.0 mi South 5.8 mph - N/A   Unknown
7:35 PM 32.0 °F 26.4 °F 21.2 °F 64% 30.03 in 10.0 mi SSE 5.8 mph - N/A   Unknown
7:55 PM 32.0 °F 28.7 °F 21.2 °F 64% 30.04 in 10.0 mi SE 3.5 mph - N/A   Unknown
8:15 PM 32.0 °F 27.5 °F 21.2 °F 64% 30.04 in 10.0 mi SE 4.6 mph - N/A   Unknown
8:35 PM 32.0 °F 27.5 °F 23.0 °F 69% 30.04 in 10.0 mi SE 4.6 mph - N/A   Unknown
8:55 PM 32.0 °F 27.5 °F 23.0 °F 69% 30.04 in 10.0 mi SSE 4.6 mph - N/A   Unknown
9:15 PM 32.0 °F 27.5 °F 23.0 °F 69% 30.05 in 10.0 mi SSE 4.6 mph - N/A   Unknown
9:35 PM 32.0 °F 27.5 °F 23.0 °F 69% 30.05 in 10.0 mi SSE 4.6 mph - N/A   Unknown
9:55 PM 32.0 °F 28.7 °F 23.0 °F 69% 30.06 in 10.0 mi South 3.5 mph - N/A   Unknown
10:15 PM 32.0 °F 26.4 °F 23.0 °F 69% 30.06 in 10.0 mi South 5.8 mph - N/A   Unknown
10:35 PM 32.0 °F 26.4 °F 23.0 °F 69% 30.08 in 10.0 mi South 5.8 mph - N/A   Unknown
10:55 PM 32.0 °F 28.7 °F 23.0 °F 69% 30.08 in 10.0 mi SW 3.5 mph - N/A   Unknown
11:15 PM 32.0 °F 22.5 °F 21.2 °F 64% 30.09 in 10.0 mi NNW 12.7 mph - N/A   Unknown
11:35 PM 30.2 °F 19.3 °F 19.4 °F 64% 30.10 in 10.0 mi NNW 15.0 mph - N/A   Unknown
11:55 PM 28.4 °F 18.5 °F 19.4 °F 69% 30.11 in 10.0 mi NW 11.5 mph - N/A   Unknown